Time;durP1;ratioP1;P1;durP2;ratioP2;P2;SDS_P1;SDS_P2;PMS_P1;PMS_P2;Temp;Humidity;BMP_temperature;BMP_pressure;BME280_temperature;BME280_humidity;BME280_pressure;Samples;Min_cycle;Max_cycle;Signal;HPM_P1;HPM_P2
2023/01/18 00:00:16;;;;;;;5.38;3.97;;;7.20;99.90;;;;;;5074886;28;20024;-34
2023/01/18 00:02:45;;;;;;;4.97;3.55;;;8.00;99.90;;;;;;5075143;28;20725;-34
2023/01/18 00:05:12;;;;;;;5.70;3.80;;;7.80;99.90;;;;;;5074843;28;20024;-35
2023/01/18 00:07:38;;;;;;;6.00;3.92;;;7.50;99.90;;;;;;5075267;28;20050;-35
2023/01/18 00:10:04;;;;;;;5.70;3.65;;;7.30;99.90;;;;;;5075200;28;20095;-34
2023/01/18 00:12:29;;;;;;;4.03;3.17;;;7.10;99.90;;;;;;5075120;28;20483;-35
2023/01/18 00:14:55;;;;;;;6.57;4.30;;;6.90;99.90;;;;;;5074206;28;20056;-34
2023/01/18 00:17:21;;;;;;;4.97;3.63;;;6.80;99.90;;;;;;5073815;28;20093;-35
2023/01/18 00:19:46;;;;;;;4.88;3.47;;;6.70;99.90;;;;;;5073877;28;20016;-35
2023/01/18 00:22:12;;;;;;;4.22;3.33;;;7.00;99.90;;;;;;5074160;28;20016;-35
2023/01/18 00:24:37;;;;;;;4.68;3.28;;;8.00;99.90;;;;;;5074424;28;20379;-35
2023/01/18 00:27:03;;;;;;;5.05;3.83;;;8.00;99.90;;;;;;5073685;28;20545;-36
2023/01/18 00:29:30;;;;;;;5.25;3.58;;;7.70;99.90;;;;;;5073892;28;20043;-34
2023/01/18 00:31:55;;;;;;;4.43;3.13;;;7.50;99.90;;;;;;5073798;28;20367;-34
2023/01/18 00:34:21;;;;;;;4.80;3.17;;;7.20;99.90;;;;;;5074685;28;20028;-35
2023/01/18 00:36:47;;;;;;;4.55;3.15;;;7.10;99.90;;;;;;5073548;28;20063;-35
2023/01/18 00:39:14;;;;;;;4.03;3.33;;;6.90;99.90;;;;;;5074448;28;20100;-34
2023/01/18 00:43:37;;;;;;;4.45;3.70;;;6.80;99.90;;;;;;5073819;28;20478;-34
2023/01/18 00:44:25;;;;;;;4.60;3.75;;;6.70;99.90;;;;;;5074669;28;20047;-35
2023/01/18 00:46:51;;;;;;;5.13;3.67;;;7.70;99.90;;;;;;5073740;28;20024;-35
2023/01/18 00:49:17;;;;;;;4.78;3.80;;;8.10;99.90;;;;;;5073499;28;20029;-35
2023/01/18 00:51:43;;;;;;;6.07;3.97;;;7.80;99.90;;;;;;5073686;28;20096;-35
2023/01/18 00:54:08;;;;;;;4.72;3.90;;;7.60;99.90;;;;;;5073418;28;20029;-34
2023/01/18 00:56:34;;;;;;;5.35;4.00;;;7.30;99.90;;;;;;5073402;28;20028;-34
2023/01/18 00:58:59;;;;;;;4.72;3.70;;;7.10;99.90;;;;;;5073421;28;20413;-34
2023/01/18 01:01:25;;;;;;;4.88;3.83;;;6.90;99.90;;;;;;5073322;28;20044;-35
2023/01/18 01:06:44;;;;;;;5.05;3.65;;;6.70;99.90;;;;;;5074157;28;20039;-34
2023/01/18 01:09:23;;;;;;;5.57;4.15;;;7.40;99.90;;;;;;5072959;28;20020;-35
2023/01/18 01:28:19;;;;;;;4.32;3.40;;;6.80;99.90;;;;;;5073174;28;20035;-34
2023/01/18 01:30:44;;;;;;;4.93;3.80;;;6.90;99.90;;;;;;5073371;28;20095;-35
2023/01/18 01:33:10;;;;;;;3.75;3.30;;;7.90;99.90;;;;;;5072926;28;20020;-34
2023/01/18 01:35:36;;;;;;;3.90;3.50;;;8.10;99.90;;;;;;5072571;28;20032;-35
2023/01/18 01:38:01;;;;;;;5.03;3.60;;;7.90;99.90;;;;;;5073232;28;20489;-35
2023/01/18 01:40:27;;;;;;;4.60;3.40;;;7.60;99.90;;;;;;5073175;28;20067;-34
2023/01/18 01:42:53;;;;;;;4.13;3.60;;;7.30;99.90;;;;;;5072321;28;20068;-34
2023/01/18 01:45:22;;;;;;;5.40;3.75;;;7.10;99.90;;;;;;5072391;28;20024;-34
2023/01/18 01:47:47;;;;;;;5.07;3.70;;;7.00;99.90;;;;;;5073189;28;20021;-34
2023/01/18 01:50:31;;;;;;;4.18;3.55;;;6.90;99.90;;;;;;5072726;28;20039;-34
2023/01/18 01:52:57;;;;;;;4.32;3.47;;;6.70;99.90;;;;;;5072262;28;20025;-34
2023/01/18 01:55:32;;;;;;;4.70;3.47;;;7.50;99.90;;;;;;5072413;28;20118;-34
2023/01/18 01:58:00;;;;;;;4.43;3.13;;;8.20;99.90;;;;;;5071869;28;20043;-35
2023/01/18 02:00:25;;;;;;;4.82;3.40;;;7.90;99.90;;;;;;5072106;28;20040;-35
2023/01/18 02:03:07;;;;;;;4.47;3.70;;;7.70;99.90;;;;;;5072193;28;20032;-35
2023/01/18 02:05:42;;;;;;;4.53;3.63;;;7.40;99.90;;;;;;5072009;28;20017;-34
2023/01/18 02:08:12;;;;;;;4.32;3.83;;;7.20;99.90;;;;;;5072161;28;20107;-35
2023/01/18 02:10:38;;;;;;;5.03;4.28;;;7.00;99.90;;;;;;5072406;28;20074;-35
2023/01/18 02:13:07;;;;;;;5.40;3.50;;;6.90;99.90;;;;;;5072436;28;20030;-35
2023/01/18 02:15:51;;;;;;;4.82;3.80;;;6.80;99.90;;;;;;5071151;28;20103;-34
2023/01/18 02:18:23;;;;;;;4.38;3.40;;;7.30;99.90;;;;;;5071669;28;20477;-35
2023/01/18 02:21:04;;;;;;;3.88;3.35;;;8.20;99.90;;;;;;5071890;28;20444;-35
2023/01/18 02:23:52;;;;;;;4.20;3.42;;;8.00;99.90;;;;;;5071820;28;20032;-35
2023/01/18 02:26:44;;;;;;;4.30;3.58;;;7.70;99.90;;;;;;5070047;28;20060;-35
2023/01/18 02:29:28;;;;;;;4.75;3.70;;;7.40;99.90;;;;;;5071896;28;20359;-34
2023/01/18 02:32:18;;;;;;;5.15;3.80;;;7.20;99.90;;;;;;5071859;28;20028;-34
2023/01/18 02:34:50;;;;;;;5.07;3.78;;;7.00;99.90;;;;;;5071615;28;20028;-34
2023/01/18 02:37:55;;;;;;;4.70;3.33;;;6.80;99.90;;;;;;5071228;28;20024;-34
2023/01/18 02:40:45;;;;;;;4.75;3.70;;;6.80;99.90;;;;;;5071623;28;20067;-35
2023/01/18 02:48:45;;;;;;;4.63;3.38;;;7.90;99.90;;;;;;5071378;28;20556;-35
2023/01/18 02:51:11;;;;;;;4.30;3.33;;;7.50;99.90;;;;;;5071465;28;20062;-35
2023/01/18 02:53:42;;;;;;;4.45;3.33;;;7.30;99.90;;;;;;5071365;28;20078;-35
2023/01/18 02:56:36;;;;;;;4.03;3.58;;;7.10;99.90;;;;;;5071326;28;20474;-34
2023/01/18 02:59:11;;;;;;;5.00;3.78;;;7.00;99.90;;;;;;5071619;28;20040;-34
2023/01/18 03:01:51;;;;;;;5.10;4.22;;;6.80;99.90;;;;;;5071396;28;20498;-35
2023/01/18 03:04:54;;;;;;;4.95;3.70;;;7.10;99.90;;;;;;5071810;28;20063;-34
2023/01/18 03:07:34;;;;;;;4.65;3.78;;;8.20;99.90;;;;;;5070308;28;20052;-34
2023/01/18 03:10:03;;;;;;;4.40;3.33;;;8.10;99.90;;;;;;5071892;28;20028;-35
2023/01/18 03:12:48;;;;;;;5.47;4.03;;;7.80;99.90;;;;;;5071631;28;20040;-34
2023/01/18 03:15:45;;;;;;;5.28;3.97;;;7.50;99.90;;;;;;5071720;28;20025;-34
2023/01/18 03:18:10;;;;;;;4.28;3.70;;;7.20;99.90;;;;;;5071953;28;20036;-35
2023/01/18 03:20:41;;;;;;;5.65;4.07;;;7.00;99.90;;;;;;5072409;28;20028;-35
2023/01/18 03:23:37;;;;;;;5.50;3.97;;;6.90;99.90;;;;;;5073694;28;20033;-35
2023/01/18 03:26:16;;;;;;;4.30;3.63;;;6.80;99.90;;;;;;5073564;28;20425;-35
2023/01/18 03:34:37;;;;;;;6.07;4.13;;;8.00;99.90;;;;;;5075170;28;20100;-35
2023/01/18 03:37:08;;;;;;;4.60;3.80;;;7.60;99.90;;;;;;5074683;28;20028;-35
2023/01/18 03:39:40;;;;;;;4.47;3.78;;;7.40;99.90;;;;;;5074750;28;20369;-34
2023/01/18 03:42:11;;;;;;;5.00;3.70;;;7.20;99.90;;;;;;5074780;28;20028;-34
2023/01/18 03:45:07;;;;;;;4.35;3.90;;;7.00;99.90;;;;;;5075465;28;20021;-35
2023/01/18 03:47:33;;;;;;;4.93;3.85;;;6.80;99.90;;;;;;5074655;28;20036;-34
2023/01/18 03:49:59;;;;;;;4.05;3.65;;;6.80;99.90;;;;;;5074728;28;20482;-35
2023/01/18 03:52:40;;;;;;;4.20;3.70;;;7.70;99.90;;;;;;5074669;28;20028;-35
2023/01/18 03:55:25;;;;;;;5.43;4.00;;;8.30;99.90;;;;;;5074871;28;20024;-34
2023/01/18 03:58:06;;;;;;;4.68;3.63;;;8.00;99.90;;;;;;5074305;28;20032;-35
2023/01/18 04:00:31;;;;;;;4.15;3.60;;;7.70;99.90;;;;;;5074501;28;20443;-35
2023/01/18 04:02:57;;;;;;;4.82;3.88;;;7.40;99.90;;;;;;5074502;28;20107;-35
2023/01/18 04:05:24;;;;;;;5.63;3.92;;;7.20;99.90;;;;;;5076387;28;20079;-34
2023/01/18 04:07:50;;;;;;;4.20;3.67;;;7.00;99.90;;;;;;5074434;28;20642;-35
2023/01/18 04:10:17;;;;;;;5.35;3.58;;;6.90;99.90;;;;;;5074330;28;20036;-34
2023/01/18 04:12:42;;;;;;;5.30;3.83;;;6.80;99.90;;;;;;5074206;28;20054;-34
2023/01/18 04:15:09;;;;;;;4.53;3.60;;;7.30;99.90;;;;;;5074251;28;20032;-35
2023/01/18 04:17:34;;;;;;;3.35;3.05;;;8.20;99.90;;;;;;5075454;28;20028;-34
2023/01/18 04:20:00;;;;;;;3.95;3.28;;;8.10;99.90;;;;;;5075516;28;20028;-34
2023/01/18 04:22:25;;;;;;;3.60;3.03;;;7.80;99.90;;;;;;5074009;28;20080;-35
2023/01/18 04:24:51;;;;;;;4.15;2.97;;;7.50;99.90;;;;;;5074199;28;20036;-35
2023/01/18 04:27:17;;;;;;;4.15;3.10;;;7.30;99.90;;;;;;5074485;28;20024;-35
2023/01/18 04:29:43;;;;;;;4.03;3.40;;;7.10;99.90;;;;;;5074439;28;20457;-35
2023/01/18 04:32:08;;;;;;;4.35;3.33;;;7.00;99.90;;;;;;5075035;28;20397;-34
2023/01/18 04:34:34;;;;;;;3.83;3.03;;;6.90;99.90;;;;;;5073800;28;20035;-34
2023/01/18 04:37:00;;;;;;;3.20;2.90;;;6.90;99.90;;;;;;5073585;28;20028;-35
2023/01/18 04:39:25;;;;;;;3.67;3.00;;;7.80;99.90;;;;;;5072439;28;20547;-34
2023/01/18 04:41:51;;;;;;;3.78;2.90;;;8.20;99.90;;;;;;5073573;28;20028;-35
2023/01/18 04:44:17;;;;;;;4.20;3.03;;;8.00;99.90;;;;;;5073592;28;20032;-35
2023/01/18 04:46:43;;;;;;;3.10;2.80;;;7.70;99.90;;;;;;5073456;28;20027;-35
2023/01/18 04:49:14;;;;;;;2.67;2.42;;;7.40;99.90;;;;;;5074118;28;20055;-35
2023/01/18 04:51:40;;;;;;;2.88;2.33;;;7.30;99.90;;;;;;5073518;28;20033;-35
2023/01/18 04:54:07;;;;;;;3.08;2.58;;;7.10;99.90;;;;;;5073567;28;20481;-35
2023/01/18 04:56:32;;;;;;;3.88;3.22;;;7.00;99.90;;;;;;5072943;28;20028;-34
2023/01/18 04:58:58;;;;;;;4.10;2.97;;;6.80;99.90;;;;;;5073434;28;20123;-34
2023/01/18 05:01:24;;;;;;;3.38;2.67;;;7.20;99.90;;;;;;5073385;28;20064;-34
2023/01/18 05:03:52;;;;;;;2.90;2.53;;;8.20;99.90;;;;;;5073383;28;20028;-35
2023/01/18 05:06:18;;;;;;;3.97;2.35;;;8.10;99.90;;;;;;5073475;28;20020;-34
2023/01/18 05:08:44;;;;;;;2.90;2.30;;;7.90;99.90;;;;;;5073190;28;20478;-34
2023/01/18 05:11:15;;;;;;;2.80;2.20;;;7.60;99.90;;;;;;5073324;28;20099;-34
2023/01/18 05:13:42;;;;;;;3.42;2.50;;;7.40;99.90;;;;;;5073467;28;20114;-35
2023/01/18 05:16:12;;;;;;;3.00;2.53;;;7.10;99.90;;;;;;5072770;28;20027;-35
2023/01/18 05:18:38;;;;;;;2.58;2.38;;;7.00;99.90;;;;;;5072999;28;20021;-35
2023/01/18 05:21:03;;;;;;;3.70;2.80;;;6.90;99.90;;;;;;5072958;28;20501;-35
2023/01/18 05:23:29;;;;;;;3.35;2.67;;;6.90;99.90;;;;;;5072839;28;20028;-34
2023/01/18 05:25:56;;;;;;;3.53;2.60;;;7.70;99.90;;;;;;5072624;28;20024;-34
2023/01/18 05:28:26;;;;;;;2.78;2.15;;;8.20;99.90;;;;;;5072738;28;20020;-34
2023/01/18 05:30:53;;;;;;;3.63;2.42;;;8.00;99.90;;;;;;5072790;28;20016;-35
2023/01/18 05:33:21;;;;;;;3.42;2.40;;;7.70;99.90;;;;;;5072668;28;20032;-34
2023/01/18 05:35:51;;;;;;;3.45;2.35;;;7.40;99.90;;;;;;5072455;28;20028;-35
2023/01/18 05:38:18;;;;;;;2.72;2.00;;;7.20;99.90;;;;;;5072444;28;20031;-35
2023/01/18 05:40:46;;;;;;;2.78;2.30;;;7.10;99.90;;;;;;5072614;28;20020;-34
2023/01/18 05:43:12;;;;;;;3.17;2.08;;;6.90;99.90;;;;;;5072443;28;20028;-34
2023/01/18 05:45:38;;;;;;;2.63;2.42;;;6.80;99.90;;;;;;5072435;28;20023;-34
2023/01/18 05:48:04;;;;;;;2.88;2.05;;;7.20;99.90;;;;;;5072580;28;20441;-34
2023/01/18 05:50:29;;;;;;;3.20;2.20;;;8.10;99.90;;;;;;5071397;28;20482;-34
2023/01/18 05:52:59;;;;;;;2.85;2.20;;;8.10;99.90;;;;;;5072287;28;20036;-35
2023/01/18 05:55:25;;;;;;;3.50;2.05;;;7.80;99.90;;;;;;5072285;28;20483;-35
2023/01/18 05:57:51;;;;;;;3.17;2.40;;;7.60;99.90;;;;;;5072117;28;20041;-35
2023/01/18 06:00:17;;;;;;;2.00;1.70;;;7.30;99.90;;;;;;5072398;28;20164;-34
2023/01/18 06:02:43;;;;;;;2.92;2.00;;;7.10;99.90;;;;;;5072154;28;20091;-34
2023/01/18 06:05:09;;;;;;;2.85;2.00;;;7.00;99.90;;;;;;5072304;28;20024;-34
2023/01/18 06:07:34;;;;;;;2.70;2.00;;;6.80;99.90;;;;;;5072421;28;20020;-35
2023/01/18 06:10:00;;;;;;;2.75;2.15;;;6.80;99.90;;;;;;5072118;28;20027;-34
2023/01/18 06:12:25;;;;;;;3.25;2.28;;;7.70;99.90;;;;;;5072208;28;20498;-34
2023/01/18 06:14:51;;;;;;;3.95;2.40;;;8.20;99.90;;;;;;5072422;28;20527;-35
2023/01/18 06:17:16;;;;;;;2.97;2.00;;;8.00;99.90;;;;;;5072162;28;20024;-35
2023/01/18 06:19:42;;;;;;;3.35;2.55;;;7.70;99.90;;;;;;5073360;28;20120;-35
2023/01/18 06:22:08;;;;;;;2.97;2.30;;;7.40;99.90;;;;;;5071895;28;20036;-35
2023/01/18 06:24:33;;;;;;;2.78;2.20;;;7.20;99.90;;;;;;5071776;28;20035;-35
2023/01/18 06:26:59;;;;;;;3.03;2.13;;;7.00;99.90;;;;;;5071485;28;20059;-34
2023/01/18 06:29:25;;;;;;;3.63;2.38;;;6.90;99.90;;;;;;5071642;28;20025;-35
2023/01/18 06:31:51;;;;;;;3.00;2.25;;;6.80;99.90;;;;;;5071659;28;20020;-35
2023/01/18 06:34:17;;;;;;;2.88;2.20;;;7.00;99.90;;;;;;5071589;28;20130;-35
2023/01/18 06:36:44;;;;;;;3.42;2.30;;;8.10;99.90;;;;;;5071322;28;20161;-34
2023/01/18 06:39:10;;;;;;;3.38;2.20;;;8.20;99.90;;;;;;5071503;28;20478;-34
2023/01/18 06:41:36;;;;;;;2.85;2.22;;;7.90;99.90;;;;;;5071428;28;20428;-35
2023/01/18 06:44:02;;;;;;;2.70;2.17;;;7.60;99.90;;;;;;5071769;28;20020;-35
2023/01/18 06:46:27;;;;;;;3.65;2.58;;;7.40;99.90;;;;;;5071200;28;20103;-35
2023/01/18 06:48:53;;;;;;;2.63;2.22;;;7.20;99.90;;;;;;5071340;28;20497;-34
2023/01/18 06:51:20;;;;;;;3.03;2.40;;;7.00;99.90;;;;;;5071346;28;20053;-35
2023/01/18 06:53:46;;;;;;;2.58;2.20;;;6.80;99.90;;;;;;5071603;28;20025;-34
2023/01/18 06:56:13;;;;;;;3.35;2.58;;;6.80;99.90;;;;;;5072064;28;20028;-34
2023/01/18 06:58:39;;;;;;;2.85;2.40;;;7.50;99.90;;;;;;5071999;28;20075;-35
2023/01/18 07:01:05;;;;;;;3.20;2.55;;;8.20;99.90;;;;;;5071087;28;20528;-35
2023/01/18 07:03:31;;;;;;;3.22;2.33;;;8.10;99.90;;;;;;5071256;28;20021;-34
2023/01/18 07:05:59;;;;;;;5.40;3.55;;;7.70;99.90;;;;;;5071032;28;20021;-35
2023/01/18 07:08:26;;;;;;;3.85;2.65;;;7.50;99.90;;;;;;5071799;28;20027;-35
2023/01/18 07:10:52;;;;;;;6.43;2.90;;;7.20;99.90;;;;;;5071779;28;20021;-35
2023/01/18 07:13:20;;;;;;;4.50;2.47;;;7.10;99.90;;;;;;5071400;28;20550;-34
2023/01/18 07:15:52;;;;;;;3.55;2.80;;;6.90;99.90;;;;;;5070373;28;20043;-35
2023/01/18 07:18:18;;;;;;;2.55;2.30;;;6.80;99.90;;;;;;5070986;28;20535;-34
2023/01/18 07:20:44;;;;;;;4.25;2.90;;;6.70;99.90;;;;;;5071436;28;20160;-35
2023/01/18 07:23:09;;;;;;;3.30;2.70;;;6.60;99.90;;;;;;5071035;28;20103;-34
2023/01/18 07:25:35;;;;;;;4.30;2.58;;;6.50;99.90;;;;;;5071404;28;20020;-35
2023/01/18 07:28:01;;;;;;;5.18;2.70;;;6.40;99.90;;;;;;5071067;28;20029;-35
2023/01/18 07:30:26;;;;;;;5.65;2.78;;;6.40;99.90;;;;;;5071071;28;20506;-35
2023/01/18 07:32:52;;;;;;;4.28;2.65;;;6.30;99.90;;;;;;5071205;28;20020;-35
2023/01/18 07:35:20;;;;;;;6.63;3.30;;;6.30;99.90;;;;;;5071731;28;20021;-35
2023/01/18 07:37:51;;;;;;;5.25;3.22;;;6.10;99.90;;;;;;5070655;28;20028;-35
2023/01/18 07:40:20;;;;;;;4.75;3.65;;;5.90;99.90;;;;;;5070988;28;20025;-35
2023/01/18 07:42:46;;;;;;;5.88;3.30;;;5.80;99.90;;;;;;5070815;28;20016;-35
2023/01/18 07:45:13;;;;;;;5.38;3.28;;;5.80;99.90;;;;;;5071521;28;20021;-34
2023/01/18 07:47:42;;;;;;;6.10;3.22;;;5.80;99.90;;;;;;5071207;28;20033;-34
2023/01/18 07:50:08;;;;;;;3.70;3.05;;;5.80;99.90;;;;;;5071032;28;20032;-35
2023/01/18 07:52:34;;;;;;;4.95;3.00;;;5.80;99.90;;;;;;5070891;28;20028;-34
2023/01/18 07:55:00;;;;;;;5.47;3.40;;;5.80;99.90;;;;;;5070930;28;20024;-34
2023/01/18 07:57:25;;;;;;;6.93;3.10;;;5.80;99.90;;;;;;5071536;28;20047;-35
2023/01/18 07:59:51;;;;;;;4.38;3.10;;;5.80;99.90;;;;;;5070539;28;20443;-34
2023/01/18 08:02:17;;;;;;;5.68;3.30;;;5.70;99.90;;;;;;5070756;28;20021;-33
2023/01/18 08:04:44;;;;;;;4.93;3.10;;;5.80;99.90;;;;;;5070602;28;20039;-34
2023/01/18 08:07:10;;;;;;;3.80;3.08;;;5.80;99.90;;;;;;5070403;28;20466;-33
2023/01/18 08:09:35;;;;;;;4.68;2.72;;;5.80;99.90;;;;;;5070681;28;20054;-34
2023/01/18 08:12:01;;;;;;;7.07;3.25;;;5.80;99.90;;;;;;5070601;28;20047;-33
2023/01/18 08:14:27;;;;;;;4.30;2.95;;;5.80;99.90;;;;;;5073752;28;20375;-34
2023/01/18 08:16:52;;;;;;;4.00;2.85;;;5.80;99.90;;;;;;5073916;28;20363;-33
2023/01/18 08:19:18;;;;;;;4.95;2.97;;;5.80;99.90;;;;;;5074020;28;20036;-34
2023/01/18 08:21:44;;;;;;;3.75;2.97;;;5.80;99.90;;;;;;5074102;28;20035;-34
2023/01/18 08:24:12;;;;;;;4.65;3.05;;;5.80;99.90;;;;;;5074071;28;20025;-34
2023/01/18 08:26:38;;;;;;;4.22;3.47;;;5.80;99.90;;;;;;5074194;28;20021;-34
2023/01/18 08:29:03;;;;;;;3.42;3.10;;;5.80;99.90;;;;;;5073728;28;20027;-33
2023/01/18 08:31:29;;;;;;;4.45;2.65;;;5.80;99.90;;;;;;5073929;28;20017;-33
2023/01/18 08:33:55;;;;;;;5.25;3.05;;;5.80;99.90;;;;;;5074109;28;20028;-34
2023/01/18 08:36:22;;;;;;;4.72;3.35;;;5.80;99.90;;;;;;5073568;28;20028;-33
2023/01/18 08:38:57;;;;;;;4.30;2.83;;;5.80;99.90;;;;;;5073809;28;20036;-34
2023/01/18 08:41:27;;;;;;;;;;;5.80;99.90;;;;;;5074161;28;20039;-33
2023/01/18 08:43:53;;;;;;;5.38;2.90;;;5.80;99.90;;;;;;5073699;28;19913;-34
2023/01/18 08:46:20;;;;;;;3.85;3.00;;;5.80;99.90;;;;;;5074816;28;20020;-34
2023/01/18 08:48:54;;;;;;;4.47;2.97;;;5.80;99.90;;;;;;5073619;28;20750;-34
2023/01/18 08:51:21;;;;;;;4.50;3.00;;;5.80;99.90;;;;;;5073691;28;20017;-33
2023/01/18 08:53:50;;;;;;;4.50;2.50;;;5.80;99.90;;;;;;5074071;28;20025;-34
2023/01/18 08:56:16;;;;;;;3.95;2.50;;;5.80;99.90;;;;;;5073196;28;20501;-33
2023/01/18 08:58:42;;;;;;;3.15;2.60;;;5.80;99.90;;;;;;5073278;28;20525;-34
2023/01/18 09:01:09;;;;;;;3.70;2.53;;;5.80;99.90;;;;;;5073118;28;20056;-34
2023/01/18 09:03:35;;;;;;;4.47;2.80;;;5.80;99.90;;;;;;5073277;28;20120;-33
2023/01/18 09:06:02;;;;;;;3.63;2.67;;;5.80;99.90;;;;;;5072943;28;20020;-34
2023/01/18 09:08:28;;;;;;;5.90;3.42;;;5.80;99.90;;;;;;5073177;28;20036;-33
2023/01/18 09:10:54;;;;;;;5.47;3.80;;;5.80;99.90;;;;;;5073233;28;20033;-33
2023/01/18 09:13:20;;;;;;;8.68;4.57;;;5.80;99.90;;;;;;5073077;28;20031;-34
2023/01/18 09:15:45;;;;;;;7.28;4.15;;;5.80;99.90;;;;;;5072924;28;20032;-34
2023/01/18 09:18:12;;;;;;;10.65;5.07;;;5.80;99.90;;;;;;5072895;28;20028;-34
2023/01/18 09:20:38;;;;;;;7.60;4.07;;;5.80;99.90;;;;;;5072901;28;20031;-34
2023/01/18 09:23:08;;;;;;;7.30;3.83;;;5.80;99.90;;;;;;5072848;28;20025;-34
2023/01/18 09:25:35;;;;;;;8.98;4.22;;;5.80;99.90;;;;;;5072972;28;20035;-33
2023/01/18 09:28:02;;;;;;;6.68;3.70;;;5.80;99.90;;;;;;5072779;28;20017;-34
2023/01/18 09:30:29;;;;;;;8.70;4.30;;;5.80;99.90;;;;;;5072806;28;20029;-34
2023/01/18 09:32:56;;;;;;;6.43;3.45;;;5.80;99.90;;;;;;5074172;28;20012;-33
2023/01/18 09:35:22;;;;;;;5.10;3.38;;;5.80;99.90;;;;;;5072907;28;20021;-33
2023/01/18 09:37:48;;;;;;;5.10;3.17;;;5.80;99.90;;;;;;5072432;28;20035;-33
2023/01/18 09:40:19;;;;;;;5.90;3.63;;;5.80;99.90;;;;;;5072637;28;20059;-34
2023/01/18 09:42:47;;;;;;;5.43;3.28;;;5.90;99.90;;;;;;5072719;28;20028;-34
2023/01/18 09:45:33;;;;;;;6.03;3.50;;;5.80;99.90;;;;;;5072440;28;20363;-34
2023/01/18 09:48:10;;;;;;;6.40;3.45;;;5.90;99.90;;;;;;5072238;28;20486;-33
2023/01/18 09:50:41;;;;;;;6.35;3.50;;;5.90;99.90;;;;;;5072537;28;20032;-34
2023/01/18 09:53:21;;;;;;;6.43;3.53;;;5.90;99.90;;;;;;5072495;28;20029;-33
2023/01/18 09:55:55;;;;;;;6.30;3.47;;;5.90;99.90;;;;;;5072121;28;20025;-33
2023/01/18 09:58:53;;;;;;;5.30;3.15;;;5.90;99.90;;;;;;5072025;28;20040;-34
2023/01/18 10:01:23;;;;;;;5.97;3.67;;;5.90;99.90;;;;;;5072220;28;20037;-35
2023/01/18 10:03:55;;;;;;;7.07;3.80;;;5.70;99.90;;;;;;5072156;28;20025;-34
2023/01/18 10:06:28;;;;;;;7.97;3.70;;;5.60;99.90;;;;;;5070552;28;20068;-34
2023/01/18 10:09:00;;;;;;;6.13;3.47;;;5.60;99.90;;;;;;5072430;28;20021;-35
2023/01/18 10:11:58;;;;;;;5.85;3.78;;;5.60;99.90;;;;;;5072096;28;20478;-35
2023/01/18 10:14:37;;;;;;;5.13;3.85;;;5.60;99.90;;;;;;5072021;28;20505;-34
2023/01/18 10:17:10;;;;;;;6.88;3.95;;;5.60;99.90;;;;;;5071656;28;20052;-35
2023/01/18 10:19:37;;;;;;;6.03;3.97;;;5.60;99.90;;;;;;5071761;28;20437;-35
2023/01/18 10:22:24;;;;;;;7.32;3.78;;;5.60;99.90;;;;;;5071805;28;20017;-35
2023/01/18 10:25:26;;;;;;;7.28;3.88;;;5.70;99.90;;;;;;5071651;28;20030;-35
2023/01/18 10:28:38;;;;;;;5.45;3.88;;;5.70;99.90;;;;;;5060390;28;20043;-35
2023/01/18 10:31:03;;;;;;;4.70;3.65;;;5.70;99.90;;;;;;5070595;28;20031;-35
2023/01/18 10:33:34;;;;;;;6.07;4.13;;;5.70;99.90;;;;;;5071654;28;20107;-35
2023/01/18 10:36:07;;;;;;;5.13;3.65;;;5.70;99.90;;;;;;5071088;28;20025;-35
2023/01/18 10:38:33;;;;;;;5.80;3.58;;;5.80;99.90;;;;;;5071600;28;20035;-35
2023/01/18 10:41:01;;;;;;;7.32;3.85;;;5.80;99.90;;;;;;5071534;28;20103;-35
2023/01/18 10:43:30;;;;;;;4.80;3.72;;;5.80;99.90;;;;;;5071459;28;20478;-35
2023/01/18 10:45:56;;;;;;;4.72;3.35;;;5.80;99.90;;;;;;5071264;28;20054;-35
2023/01/18 10:48:24;;;;;;;4.05;3.28;;;5.80;99.90;;;;;;5071277;28;20099;-35
2023/01/18 10:50:59;;;;;;;4.15;3.45;;;5.80;99.90;;;;;;5071585;28;20025;-35
2023/01/18 10:53:26;;;;;;;6.75;3.60;;;5.80;99.90;;;;;;5071511;28;20509;-35
2023/01/18 10:56:00;;;;;;;7.03;3.67;;;5.80;99.90;;;;;;5071222;28;20040;-35
2023/01/18 10:58:47;;;;;;;6.10;3.60;;;5.90;99.90;;;;;;5071245;28;20418;-35
2023/01/18 11:01:23;;;;;;;4.85;3.60;;;5.90;99.90;;;;;;5070619;28;20040;-35
2023/01/18 11:03:55;;;;;;;7.93;3.83;;;5.80;99.90;;;;;;5071125;28;20486;-35
2023/01/18 11:06:23;;;;;;;6.32;3.13;;;5.80;99.90;;;;;;5071053;28;20021;-35
2023/01/18 11:08:49;;;;;;;4.88;3.40;;;5.90;99.90;;;;;;5071609;28;20017;-35
2023/01/18 11:14:28;;;;;;;5.88;3.70;;;5.90;99.90;;;;;;5071605;28;20081;-34
2023/01/18 11:17:10;;;;;;;6.00;3.72;;;5.90;99.90;;;;;;5070982;28;20083;-35
2023/01/18 11:19:36;;;;;;;5.00;3.53;;;5.90;99.90;;;;;;5071050;28;20020;-35
2023/01/18 11:22:09;;;;;;;3.95;3.25;;;5.90;99.90;;;;;;5073422;28;20052;-35
2023/01/18 11:24:36;;;;;;;5.20;3.45;;;5.90;99.90;;;;;;5070973;28;20020;-35
2023/01/18 11:27:12;;;;;;;5.80;3.38;;;5.90;99.90;;;;;;5070980;28;20025;-35
2023/01/18 11:29:42;;;;;;;5.88;3.40;;;5.90;99.90;;;;;;5071050;28;20021;-35
2023/01/18 11:32:24;;;;;;;5.43;3.15;;;5.90;99.90;;;;;;5071114;28;20033;-35
2023/01/18 11:34:53;;;;;;;4.20;3.17;;;5.90;99.90;;;;;;5069793;28;20032;-35
2023/01/18 11:37:29;;;;;;;5.97;3.03;;;6.00;99.90;;;;;;5070883;28;20115;-35
2023/01/18 11:39:56;;;;;;;5.05;3.22;;;5.90;99.90;;;;;;5070945;28;20028;-35
2023/01/18 11:42:31;;;;;;;5.32;3.30;;;6.00;99.90;;;;;;5070863;28;20024;-34
2023/01/18 11:45:18;;;;;;;5.80;3.40;;;5.90;99.90;;;;;;5071198;28;20432;-35
2023/01/18 11:47:56;;;;;;;6.40;3.20;;;6.00;99.90;;;;;;5071694;28;20086;-35
2023/01/18 11:50:21;;;;;;;4.60;2.92;;;6.00;99.90;;;;;;5074981;28;20042;-34
2023/01/18 11:52:59;;;;;;;4.80;3.28;;;6.00;99.90;;;;;;5074627;28;20482;-35
2023/01/18 11:55:30;;;;;;;4.13;2.70;;;6.00;99.90;;;;;;5074696;28;20017;-34
2023/01/18 11:57:58;;;;;;;4.05;3.00;;;6.00;99.90;;;;;;5074638;28;20085;-34
2023/01/18 12:00:27;;;;;;;4.47;3.20;;;6.00;99.90;;;;;;5076171;28;20108;-35
2023/01/18 12:03:11;;;;;;;4.90;3.00;;;6.00;99.90;;;;;;5074553;28;20100;-35
2023/01/18 12:05:43;;;;;;;3.42;2.60;;;6.00;99.90;;;;;;5074663;28;20482;-35
2023/01/18 12:08:37;;;;;;;4.05;2.92;;;6.00;99.90;;;;;;5075377;28;20020;-35
2023/01/18 12:11:28;;;;;;;6.05;3.17;;;6.00;99.90;;;;;;5074569;28;20021;-34
2023/01/18 12:14:02;;;;;;;5.28;2.90;;;6.00;99.90;;;;;;5074366;28;20556;-34
2023/01/18 12:17:04;;;;;;;3.90;2.90;;;6.00;99.90;;;;;;5074414;28;20485;-35
2023/01/18 12:19:40;;;;;;;6.10;2.72;;;6.00;99.90;;;;;;5076768;28;20020;-34
2023/01/18 12:22:15;;;;;;;2.90;2.38;;;6.00;99.90;;;;;;5074140;28;20522;-34
2023/01/18 12:24:55;;;;;;;5.32;3.45;;;6.00;99.90;;;;;;5074234;28;20028;-34
2023/01/18 12:27:27;;;;;;;6.60;3.05;;;6.00;99.90;;;;;;5074492;28;20025;-34
2023/01/18 12:30:17;;;;;;;4.70;3.17;;;6.10;99.90;;;;;;5073956;28;20367;-35
2023/01/18 12:33:07;;;;;;;3.85;2.67;;;6.00;99.90;;;;;;5074153;28;20047;-34
2023/01/18 12:35:50;;;;;;;6.78;2.63;;;6.00;99.90;;;;;;5074113;28;20027;-35
2023/01/18 12:38:38;;;;;;;4.60;2.35;;;6.00;99.90;;;;;;5074991;28;20450;-35
2023/01/18 12:41:17;;;;;;;3.67;2.40;;;6.10;99.90;;;;;;5074174;28;20028;-35
2023/01/18 12:44:06;;;;;;;5.65;3.00;;;6.10;99.90;;;;;;5073799;28;20310;-34
2023/01/18 12:46:39;;;;;;;4.05;2.67;;;6.10;99.90;;;;;;5073593;28;20017;-35
2023/01/18 12:49:17;;;;;;;5.38;2.85;;;6.10;99.90;;;;;;5073658;28;20047;-34
2023/01/18 12:51:49;;;;;;;5.88;2.90;;;6.00;99.90;;;;;;5073804;28;20021;-35
2023/01/18 12:54:45;;;;;;;3.83;2.70;;;6.10;99.90;;;;;;5073791;28;20375;-35
2023/01/18 12:57:12;;;;;;;4.25;2.65;;;6.10;99.90;;;;;;5073276;28;20032;-35
2023/01/18 12:59:44;;;;;;;4.75;2.67;;;6.10;99.90;;;;;;5072869;28;20494;-34
2023/01/18 13:02:23;;;;;;;4.60;2.58;;;6.10;99.90;;;;;;5073467;28;20072;-34
2023/01/18 13:05:00;;;;;;;4.22;2.72;;;6.10;99.90;;;;;;5073968;28;20025;-35
2023/01/18 13:07:38;;;;;;;5.25;3.00;;;6.10;99.90;;;;;;5074600;28;20028;-34
2023/01/18 13:10:06;;;;;;;4.43;2.63;;;6.10;99.90;;;;;;5075330;28;20031;-34
2023/01/18 13:12:32;;;;;;;4.18;2.40;;;6.10;99.90;;;;;;5073162;28;20012;-34
2023/01/18 13:15:24;;;;;;;7.63;3.33;;;6.10;99.90;;;;;;5073184;28;20478;-35
2023/01/18 13:18:04;;;;;;;7.15;3.90;;;6.10;99.90;;;;;;5072916;28;20024;-35
2023/01/18 13:20:56;;;;;;;14.43;5.30;;;6.10;99.90;;;;;;5073095;28;20035;-34
2023/01/18 13:23:41;;;;;;;8.55;4.35;;;6.10;99.90;;;;;;5073003;28;20475;-35
2023/01/18 13:26:23;;;;;;;8.68;4.57;;;6.10;99.90;;;;;;5072730;28;20490;-34
2023/01/18 13:29:15;;;;;;;8.85;4.75;;;6.10;99.90;;;;;;5073204;28;20028;-34
2023/01/18 13:31:42;;;;;;;9.23;4.95;;;6.10;99.90;;;;;;5072932;28;20398;-35
2023/01/18 13:34:29;;;;;;;9.43;5.45;;;6.10;99.90;;;;;;5072815;28;20017;-35
2023/01/18 13:36:57;;;;;;;9.30;5.03;;;6.10;99.90;;;;;;5072770;28;20048;-35
2023/01/18 13:39:24;;;;;;;9.80;5.07;;;6.10;99.90;;;;;;5072660;28;20466;-35
2023/01/18 13:42:08;;;;;;;13.55;5.30;;;6.00;99.90;;;;;;5073023;28;20029;-35
2023/01/18 13:44:45;;;;;;;8.43;4.90;;;6.00;99.90;;;;;;5071981;28;20020;-34
2023/01/18 13:47:34;;;;;;;11.23;4.80;;;6.00;99.90;;;;;;5072352;28;20247;-34
2023/01/18 13:50:00;;;;;;;9.88;4.72;;;6.00;99.90;;;;;;5071861;28;20060;-34
2023/01/18 13:52:34;;;;;;;7.22;4.60;;;6.00;99.90;;;;;;5072601;28;20055;-34